Anholt Island, Denmark

4:23 AM CEST on May 27, 2015 (GMT +0200)
Aarhus | | Change Station
CLOSE
Current Station
Airport
Location: Tirstrup,
Elevation: 75 ft
Nearby Weather Stations

Elev 75 ft 56.31 °N, 10.63 °E | Updated 3 minutes ago

Clear
Clear
46 °F
Feels Like 42 °F
N
9
Wind Variable Wind from West

Today
High -- | Low -- °F
--% Chance of Precip.
Yesterday
High -- | Low -- °F
Precip. -- in
4:37 AM 9:45 PM
Waxing Gibbous, 63% visible
Pressure 29.98 in
Visibility 6.2 miles
Clouds
Windchill 42 °F
Dew Point 41 °F
Humidity 81%
Rainfall 0.00 in
Snow Depth Not available.
UV Not available.
Pollen Not available.
Air Quality Not available.
Flu Activity Not available.
METAR EKAH 270220Z AUTO 26008KT 9999NDV NCD 08/05 Q1015

More Conditions Fewer Conditions

Pressure 29.98 in
Visibility 6.2 miles
Clouds
Windchill 42 °F
Dew Point 41 °F
Humidity 81%
Rainfall 0.00 in
Snow Depth Not available.
UV Not available.
Pollen Not available.
Air Quality Not available.
Flu Activity Not available.
METAR EKAH 270220Z AUTO 26008KT 9999NDV NCD 08/05 Q1015

More Conditions Fewer Conditions

10-Day Weather Forecast

Almanac

Astronomy

May. 27, 2015 Rise Set
Actual Time
Civil Twilight
Nautical Twilight
Astronomical Twilight
Moon
Length of Visible Light
Length of Day
Tomorrow will be .
, % of the Moon is Illuminated

Today's Extremes

Country Highs Country Lows

Community

WunderPhotos

Upload Photos

1,824,562 photos uploaded!

WunderBlogs® & News

Nearby

Air Quality

  Air Quality AQ Index Pollutant
Not available.

Snow Depth

Station Depth Elevation

Earthquake Activity

City Distance Mag. Time & Date
Minimum magnitude displayed is 2.5.

Coastal Water Temperatures

Place Temperature

Stations

Nearby Weather Stations

Station Location Temp. Windchill Dew Point Humidity Wind Precip. Elev Updated Type